sensor_id;sensor_type;location;lat;lon;timestamp;P1;durP1;ratioP1;P2;durP2;ratioP2
32637;SDS011;19045;52.268;10.506;2022-12-07T00:01:19;35.20;;;21.88;;
32637;SDS011;19045;52.268;10.506;2022-12-07T00:03:47;38.72;;;22.27;;
32637;SDS011;19045;52.268;10.506;2022-12-07T00:06:17;31.35;;;21.55;;
32637;SDS011;19045;52.268;10.506;2022-12-07T00:08:44;34.15;;;22.90;;
32637;SDS011;19045;52.268;10.506;2022-12-07T00:11:12;39.17;;;22.95;;
32637;SDS011;19045;52.268;10.506;2022-12-07T00:13:40;35.75;;;23.30;;
32637;SDS011;19045;52.268;10.506;2022-12-07T00:16:08;36.10;;;23.13;;
32637;SDS011;19045;52.268;10.506;2022-12-07T00:18:36;36.08;;;23.52;;
32637;SDS011;19045;52.268;10.506;2022-12-07T00:21:04;39.17;;;22.77;;
32637;SDS011;19045;52.268;10.506;2022-12-07T00:23:33;34.75;;;23.15;;
32637;SDS011;19045;52.268;10.506;2022-12-07T00:26:03;38.03;;;23.38;;
32637;SDS011;19045;52.268;10.506;2022-12-07T00:28:31;36.25;;;23.08;;
32637;SDS011;19045;52.268;10.506;2022-12-07T00:30:59;36.65;;;23.00;;
32637;SDS011;19045;52.268;10.506;2022-12-07T00:33:27;40.50;;;23.95;;
32637;SDS011;19045;52.268;10.506;2022-12-07T00:35:54;36.22;;;23.17;;
32637;SDS011;19045;52.268;10.506;2022-12-07T00:38:22;39.08;;;25.25;;
32637;SDS011;19045;52.268;10.506;2022-12-07T00:40:54;37.33;;;24.77;;
32637;SDS011;19045;52.268;10.506;2022-12-07T00:43:24;37.35;;;24.23;;
32637;SDS011;19045;52.268;10.506;2022-12-07T00:45:52;45.40;;;27.05;;
32637;SDS011;19045;52.268;10.506;2022-12-07T00:48:19;41.70;;;26.83;;
32637;SDS011;19045;52.268;10.506;2022-12-07T00:50:46;43.05;;;26.25;;
32637;SDS011;19045;52.268;10.506;2022-12-07T00:53:13;44.47;;;26.45;;
32637;SDS011;19045;52.268;10.506;2022-12-07T00:55:39;44.40;;;27.23;;
32637;SDS011;19045;52.268;10.506;2022-12-07T00:58:07;44.60;;;26.17;;
32637;SDS011;19045;52.268;10.506;2022-12-07T01:00:35;43.67;;;26.10;;
32637;SDS011;19045;52.268;10.506;2022-12-07T01:03:03;45.25;;;26.25;;
32637;SDS011;19045;52.268;10.506;2022-12-07T01:05:30;46.42;;;28.70;;
32637;SDS011;19045;52.268;10.506;2022-12-07T01:08:00;45.75;;;27.35;;
32637;SDS011;19045;52.268;10.506;2022-12-07T01:10:27;44.92;;;27.88;;
32637;SDS011;19045;52.268;10.506;2022-12-07T01:12:55;47.05;;;29.67;;
32637;SDS011;19045;52.268;10.506;2022-12-07T01:15:23;46.95;;;28.25;;
32637;SDS011;19045;52.268;10.506;2022-12-07T01:17:50;49.47;;;28.40;;
32637;SDS011;19045;52.268;10.506;2022-12-07T01:20:17;47.70;;;29.67;;
32637;SDS011;19045;52.268;10.506;2022-12-07T01:22:43;48.42;;;29.95;;
32637;SDS011;19045;52.268;10.506;2022-12-07T01:25:10;52.90;;;30.83;;
32637;SDS011;19045;52.268;10.506;2022-12-07T01:27:37;51.50;;;30.33;;
32637;SDS011;19045;52.268;10.506;2022-12-07T01:30:06;47.42;;;29.65;;
32637;SDS011;19045;52.268;10.506;2022-12-07T01:32:34;49.00;;;28.75;;
32637;SDS011;19045;52.268;10.506;2022-12-07T01:35:01;48.92;;;29.25;;
32637;SDS011;19045;52.268;10.506;2022-12-07T01:37:28;47.83;;;28.83;;
32637;SDS011;19045;52.268;10.506;2022-12-07T01:39:59;54.00;;;31.02;;
32637;SDS011;19045;52.268;10.506;2022-12-07T01:42:26;52.97;;;30.23;;
32637;SDS011;19045;52.268;10.506;2022-12-07T01:48:04;55.22;;;31.52;;
32637;SDS011;19045;52.268;10.506;2022-12-07T01:50:32;55.63;;;32.53;;
32637;SDS011;19045;52.268;10.506;2022-12-07T01:53:00;61.47;;;33.67;;
32637;SDS011;19045;52.268;10.506;2022-12-07T01:55:30;54.72;;;32.60;;
32637;SDS011;19045;52.268;10.506;2022-12-07T01:57:57;53.60;;;32.10;;
32637;SDS011;19045;52.268;10.506;2022-12-07T02:00:24;61.40;;;35.17;;
32637;SDS011;19045;52.268;10.506;2022-12-07T02:02:51;60.58;;;34.47;;
32637;SDS011;19045;52.268;10.506;2022-12-07T02:05:23;59.28;;;34.42;;
32637;SDS011;19045;52.268;10.506;2022-12-07T02:07:52;59.55;;;34.13;;
32637;SDS011;19045;52.268;10.506;2022-12-07T02:10:22;62.15;;;34.10;;
32637;SDS011;19045;52.268;10.506;2022-12-07T02:12:52;61.00;;;34.47;;
32637;SDS011;19045;52.268;10.506;2022-12-07T02:15:22;59.27;;;33.97;;
32637;SDS011;19045;52.268;10.506;2022-12-07T02:17:55;58.80;;;34.78;;
32637;SDS011;19045;52.268;10.506;2022-12-07T02:20:32;58.67;;;33.00;;
32637;SDS011;19045;52.268;10.506;2022-12-07T02:23:12;58.30;;;32.63;;
32637;SDS011;19045;52.268;10.506;2022-12-07T02:25:56;63.80;;;32.72;;
32637;SDS011;19045;52.268;10.506;2022-12-07T02:28:37;55.28;;;33.13;;
32637;SDS011;19045;52.268;10.506;2022-12-07T02:31:14;59.72;;;32.42;;
32637;SDS011;19045;52.268;10.506;2022-12-07T02:33:45;58.55;;;33.45;;
32637;SDS011;19045;52.268;10.506;2022-12-07T02:36:21;54.92;;;32.67;;
32637;SDS011;19045;52.268;10.506;2022-12-07T02:38:54;58.97;;;33.45;;
32637;SDS011;19045;52.268;10.506;2022-12-07T02:41:24;58.90;;;32.83;;
32637;SDS011;19045;52.268;10.506;2022-12-07T02:43:55;55.92;;;34.13;;
32637;SDS011;19045;52.268;10.506;2022-12-07T02:48:55;53.70;;;31.02;;
32637;SDS011;19045;52.268;10.506;2022-12-07T02:51:24;51.70;;;31.23;;
32637;SDS011;19045;52.268;10.506;2022-12-07T02:53:51;49.95;;;31.83;;
32637;SDS011;19045;52.268;10.506;2022-12-07T02:56:19;53.28;;;30.45;;
32637;SDS011;19045;52.268;10.506;2022-12-07T02:58:57;49.58;;;30.90;;
32637;SDS011;19045;52.268;10.506;2022-12-07T03:01:35;49.85;;;29.15;;
32637;SDS011;19045;52.268;10.506;2022-12-07T03:04:15;48.95;;;28.90;;
32637;SDS011;19045;52.268;10.506;2022-12-07T03:06:58;44.95;;;28.05;;
32637;SDS011;19045;52.268;10.506;2022-12-07T03:09:32;44.83;;;29.17;;
32637;SDS011;19045;52.268;10.506;2022-12-07T03:14:41;43.30;;;27.58;;
32637;SDS011;19045;52.268;10.506;2022-12-07T03:17:14;43.38;;;27.95;;
32637;SDS011;19045;52.268;10.506;2022-12-07T03:19:45;40.58;;;27.15;;
32637;SDS011;19045;52.268;10.506;2022-12-07T03:22:15;40.88;;;26.88;;
32637;SDS011;19045;52.268;10.506;2022-12-07T03:24:44;40.58;;;26.83;;
32637;SDS011;19045;52.268;10.506;2022-12-07T03:27:15;39.88;;;27.15;;
32637;SDS011;19045;52.268;10.506;2022-12-07T03:29:48;47.67;;;28.02;;
32637;SDS011;19045;52.268;10.506;2022-12-07T03:32:19;41.63;;;27.52;;
32637;SDS011;19045;52.268;10.506;2022-12-07T03:34:52;39.83;;;25.40;;
32637;SDS011;19045;52.268;10.506;2022-12-07T03:37:26;37.88;;;25.80;;
32637;SDS011;19045;52.268;10.506;2022-12-07T03:39:58;38.42;;;26.73;;
32637;SDS011;19045;52.268;10.506;2022-12-07T03:42:32;35.25;;;24.42;;
32637;SDS011;19045;52.268;10.506;2022-12-07T03:45:01;40.28;;;26.42;;
32637;SDS011;19045;52.268;10.506;2022-12-07T03:47:31;38.97;;;26.63;;
32637;SDS011;19045;52.268;10.506;2022-12-07T03:50:02;41.10;;;25.63;;
32637;SDS011;19045;52.268;10.506;2022-12-07T03:52:36;38.72;;;24.88;;
32637;SDS011;19045;52.268;10.506;2022-12-07T03:55:08;37.63;;;25.35;;
32637;SDS011;19045;52.268;10.506;2022-12-07T03:57:41;43.22;;;26.17;;
32637;SDS011;19045;52.268;10.506;2022-12-07T04:00:12;40.17;;;24.58;;
32637;SDS011;19045;52.268;10.506;2022-12-07T04:02:42;38.65;;;25.15;;
32637;SDS011;19045;52.268;10.506;2022-12-07T04:05:09;36.00;;;24.13;;
32637;SDS011;19045;52.268;10.506;2022-12-07T04:07:36;36.58;;;25.88;;
32637;SDS011;19045;52.268;10.506;2022-12-07T04:10:03;33.72;;;23.45;;
32637;SDS011;19045;52.268;10.506;2022-12-07T04:12:30;34.97;;;24.60;;
32637;SDS011;19045;52.268;10.506;2022-12-07T04:14:57;40.45;;;23.98;;
32637;SDS011;19045;52.268;10.506;2022-12-07T04:17:25;35.65;;;23.60;;
32637;SDS011;19045;52.268;10.506;2022-12-07T04:19:52;30.98;;;22.00;;
32637;SDS011;19045;52.268;10.506;2022-12-07T04:22:18;34.55;;;22.55;;
32637;SDS011;19045;52.268;10.506;2022-12-07T04:24:45;35.20;;;22.83;;
32637;SDS011;19045;52.268;10.506;2022-12-07T04:27:11;33.17;;;22.08;;
32637;SDS011;19045;52.268;10.506;2022-12-07T04:29:38;32.90;;;21.02;;
32637;SDS011;19045;52.268;10.506;2022-12-07T04:32:05;31.33;;;19.95;;
32637;SDS011;19045;52.268;10.506;2022-12-07T04:34:33;37.05;;;21.52;;
32637;SDS011;19045;52.268;10.506;2022-12-07T04:36:59;30.80;;;20.50;;
32637;SDS011;19045;52.268;10.506;2022-12-07T04:39:27;35.13;;;21.40;;
32637;SDS011;19045;52.268;10.506;2022-12-07T04:41:55;31.02;;;20.58;;
32637;SDS011;19045;52.268;10.506;2022-12-07T04:44:23;29.70;;;19.10;;
32637;SDS011;19045;52.268;10.506;2022-12-07T04:46:50;37.25;;;20.20;;
32637;SDS011;19045;52.268;10.506;2022-12-07T04:49:18;35.17;;;20.42;;
32637;SDS011;19045;52.268;10.506;2022-12-07T04:51:46;31.20;;;18.73;;
32637;SDS011;19045;52.268;10.506;2022-12-07T04:54:13;33.97;;;19.95;;
32637;SDS011;19045;52.268;10.506;2022-12-07T04:56:41;31.88;;;19.10;;
32637;SDS011;19045;52.268;10.506;2022-12-07T04:59:08;28.55;;;17.75;;
32637;SDS011;19045;52.268;10.506;2022-12-07T05:01:35;32.22;;;18.98;;
32637;SDS011;19045;52.268;10.506;2022-12-07T05:04:02;30.35;;;18.40;;
32637;SDS011;19045;52.268;10.506;2022-12-07T05:06:29;29.50;;;17.80;;
32637;SDS011;19045;52.268;10.506;2022-12-07T05:08:57;26.58;;;18.17;;
32637;SDS011;19045;52.268;10.506;2022-12-07T05:11:24;28.50;;;18.02;;
32637;SDS011;19045;52.268;10.506;2022-12-07T05:14:06;32.05;;;18.75;;
32637;SDS011;19045;52.268;10.506;2022-12-07T05:16:35;27.63;;;17.90;;
32637;SDS011;19045;52.268;10.506;2022-12-07T05:19:02;30.48;;;17.38;;
32637;SDS011;19045;52.268;10.506;2022-12-07T05:21:30;28.60;;;17.90;;
32637;SDS011;19045;52.268;10.506;2022-12-07T05:23:58;30.02;;;17.80;;
32637;SDS011;19045;52.268;10.506;2022-12-07T05:26:25;25.60;;;16.13;;
32637;SDS011;19045;52.268;10.506;2022-12-07T05:28:52;32.28;;;18.45;;
32637;SDS011;19045;52.268;10.506;2022-12-07T05:31:18;25.35;;;16.45;;
32637;SDS011;19045;52.268;10.506;2022-12-07T05:33:45;26.35;;;15.73;;
32637;SDS011;19045;52.268;10.506;2022-12-07T05:36:12;31.77;;;16.30;;
32637;SDS011;19045;52.268;10.506;2022-12-07T05:38:39;30.80;;;17.50;;
32637;SDS011;19045;52.268;10.506;2022-12-07T05:41:07;26.75;;;17.50;;
32637;SDS011;19045;52.268;10.506;2022-12-07T05:43:55;31.30;;;17.73;;
32637;SDS011;19045;52.268;10.506;2022-12-07T05:46:22;29.17;;;16.15;;
32637;SDS011;19045;52.268;10.506;2022-12-07T05:48:48;26.15;;;15.85;;
32637;SDS011;19045;52.268;10.506;2022-12-07T05:51:15;30.80;;;15.63;;
32637;SDS011;19045;52.268;10.506;2022-12-07T05:53:42;31.52;;;15.70;;
32637;SDS011;19045;52.268;10.506;2022-12-07T05:56:10;29.73;;;15.88;;
32637;SDS011;19045;52.268;10.506;2022-12-07T05:58:36;25.00;;;17.02;;
32637;SDS011;19045;52.268;10.506;2022-12-07T06:01:20;29.10;;;15.98;;
32637;SDS011;19045;52.268;10.506;2022-12-07T06:03:47;20.85;;;15.60;;
32637;SDS011;19045;52.268;10.506;2022-12-07T06:06:13;25.45;;;16.30;;
32637;SDS011;19045;52.268;10.506;2022-12-07T06:08:40;26.65;;;16.13;;
32637;SDS011;19045;52.268;10.506;2022-12-07T06:11:07;25.15;;;16.25;;
32637;SDS011;19045;52.268;10.506;2022-12-07T06:13:52;24.73;;;15.52;;
32637;SDS011;19045;52.268;10.506;2022-12-07T06:16:18;17.35;;;11.07;;
32637;SDS011;19045;52.268;10.506;2022-12-07T06:18:45;15.30;;;9.13;;
32637;SDS011;19045;52.268;10.506;2022-12-07T06:21:12;16.75;;;10.23;;
32637;SDS011;19045;52.268;10.506;2022-12-07T06:23:39;15.35;;;9.77;;
32637;SDS011;19045;52.268;10.506;2022-12-07T06:26:06;11.45;;;8.80;;
32637;SDS011;19045;52.268;10.506;2022-12-07T06:28:33;10.35;;;6.88;;
32637;SDS011;19045;52.268;10.506;2022-12-07T06:31:01;13.65;;;6.97;;
32637;SDS011;19045;52.268;10.506;2022-12-07T06:33:28;10.35;;;6.38;;
32637;SDS011;19045;52.268;10.506;2022-12-07T06:35:55;14.48;;;8.38;;
32637;SDS011;19045;52.268;10.506;2022-12-07T06:38:22;13.93;;;8.38;;
32637;SDS011;19045;52.268;10.506;2022-12-07T06:40:48;12.52;;;8.38;;
32637;SDS011;19045;52.268;10.506;2022-12-07T06:43:15;12.27;;;8.93;;
32637;SDS011;19045;52.268;10.506;2022-12-07T06:45:42;18.73;;;9.85;;
32637;SDS011;19045;52.268;10.506;2022-12-07T06:48:10;16.05;;;8.98;;
32637;SDS011;19045;52.268;10.506;2022-12-07T06:50:36;11.45;;;8.13;;
32637;SDS011;19045;52.268;10.506;2022-12-07T06:53:03;13.80;;;9.25;;
32637;SDS011;19045;52.268;10.506;2022-12-07T06:55:30;18.48;;;8.85;;
32637;SDS011;19045;52.268;10.506;2022-12-07T06:57:56;19.83;;;9.98;;
32637;SDS011;19045;52.268;10.506;2022-12-07T07:00:23;17.23;;;10.40;;
32637;SDS011;19045;52.268;10.506;2022-12-07T07:02:50;21.10;;;11.52;;
32637;SDS011;19045;52.268;10.506;2022-12-07T07:05:18;29.23;;;15.63;;
32637;SDS011;19045;52.268;10.506;2022-12-07T07:07:46;24.33;;;16.35;;
32637;SDS011;19045;52.268;10.506;2022-12-07T07:10:13;25.17;;;16.40;;
32637;SDS011;19045;52.268;10.506;2022-12-07T07:12:39;30.13;;;17.70;;
32637;SDS011;19045;52.268;10.506;2022-12-07T07:15:06;32.00;;;19.92;;
32637;SDS011;19045;52.268;10.506;2022-12-07T07:17:34;33.63;;;18.73;;
32637;SDS011;19045;52.268;10.506;2022-12-07T07:20:01;31.25;;;18.70;;
32637;SDS011;19045;52.268;10.506;2022-12-07T07:22:29;31.02;;;18.77;;
32637;SDS011;19045;52.268;10.506;2022-12-07T07:24:55;33.05;;;19.38;;
32637;SDS011;19045;52.268;10.506;2022-12-07T07:27:22;32.95;;;19.35;;
32637;SDS011;19045;52.268;10.506;2022-12-07T07:29:48;41.45;;;19.88;;
32637;SDS011;19045;52.268;10.506;2022-12-07T07:32:15;40.90;;;20.35;;
32637;SDS011;19045;52.268;10.506;2022-12-07T07:34:42;30.92;;;19.08;;
32637;SDS011;19045;52.268;10.506;2022-12-07T07:37:08;29.65;;;19.80;;
32637;SDS011;19045;52.268;10.506;2022-12-07T07:39:37;30.38;;;17.95;;
32637;SDS011;19045;52.268;10.506;2022-12-07T07:42:04;37.13;;;20.13;;
32637;SDS011;19045;52.268;10.506;2022-12-07T07:44:32;24.55;;;16.63;;
32637;SDS011;19045;52.268;10.506;2022-12-07T07:46:59;34.20;;;18.50;;
32637;SDS011;19045;52.268;10.506;2022-12-07T07:49:26;35.78;;;18.23;;
32637;SDS011;19045;52.268;10.506;2022-12-07T07:51:52;27.88;;;17.25;;
32637;SDS011;19045;52.268;10.506;2022-12-07T07:54:19;30.05;;;17.50;;
32637;SDS011;19045;52.268;10.506;2022-12-07T07:56:47;28.70;;;17.85;;
32637;SDS011;19045;52.268;10.506;2022-12-07T07:59:14;33.38;;;18.48;;
32637;SDS011;19045;52.268;10.506;2022-12-07T08:01:40;35.00;;;19.05;;
32637;SDS011;19045;52.268;10.506;2022-12-07T08:04:07;38.08;;;18.95;;
32637;SDS011;19045;52.268;10.506;2022-12-07T08:06:34;27.60;;;18.33;;
32637;SDS011;19045;52.268;10.506;2022-12-07T08:09:00;34.50;;;18.40;;
32637;SDS011;19045;52.268;10.506;2022-12-07T08:11:27;31.17;;;17.83;;
32637;SDS011;19045;52.268;10.506;2022-12-07T08:13:55;29.42;;;17.77;;
32637;SDS011;19045;52.268;10.506;2022-12-07T08:16:22;29.70;;;18.42;;
32637;SDS011;19045;52.268;10.506;2022-12-07T08:18:48;31.25;;;16.85;;
32637;SDS011;19045;52.268;10.506;2022-12-07T08:21:15;27.35;;;16.17;;
32637;SDS011;19045;52.268;10.506;2022-12-07T08:23:42;26.65;;;16.90;;
32637;SDS011;19045;52.268;10.506;2022-12-07T08:26:09;30.77;;;16.65;;
32637;SDS011;19045;52.268;10.506;2022-12-07T08:28:37;26.75;;;16.15;;
32637;SDS011;19045;52.268;10.506;2022-12-07T08:31:07;29.55;;;17.40;;
32637;SDS011;19045;52.268;10.506;2022-12-07T08:33:37;35.60;;;18.08;;
32637;SDS011;19045;52.268;10.506;2022-12-07T08:36:04;30.52;;;16.17;;
32637;SDS011;19045;52.268;10.506;2022-12-07T08:38:33;23.27;;;16.00;;
32637;SDS011;19045;52.268;10.506;2022-12-07T08:41:00;21.85;;;13.75;;
32637;SDS011;19045;52.268;10.506;2022-12-07T08:43:27;28.05;;;15.27;;
32637;SDS011;19045;52.268;10.506;2022-12-07T08:45:55;24.10;;;14.00;;
32637;SDS011;19045;52.268;10.506;2022-12-07T08:48:31;26.20;;;14.52;;
32637;SDS011;19045;52.268;10.506;2022-12-07T08:51:00;21.80;;;12.75;;
32637;SDS011;19045;52.268;10.506;2022-12-07T08:53:27;21.20;;;13.30;;
32637;SDS011;19045;52.268;10.506;2022-12-07T08:55:55;22.90;;;12.50;;
32637;SDS011;19045;52.268;10.506;2022-12-07T08:58:23;21.95;;;13.43;;
32637;SDS011;19045;52.268;10.506;2022-12-07T09:00:50;19.35;;;13.48;;
32637;SDS011;19045;52.268;10.506;2022-12-07T09:03:17;23.45;;;12.90;;
32637;SDS011;19045;52.268;10.506;2022-12-07T09:05:45;20.38;;;13.32;;
32637;SDS011;19045;52.268;10.506;2022-12-07T09:08:12;28.10;;;13.95;;
32637;SDS011;19045;52.268;10.506;2022-12-07T09:10:39;22.02;;;13.43;;
32637;SDS011;19045;52.268;10.506;2022-12-07T09:13:05;25.63;;;12.18;;
32637;SDS011;19045;52.268;10.506;2022-12-07T09:15:32;24.88;;;13.60;;
32637;SDS011;19045;52.268;10.506;2022-12-07T09:17:59;29.13;;;14.07;;
32637;SDS011;19045;52.268;10.506;2022-12-07T09:20:27;23.52;;;13.38;;
32637;SDS011;19045;52.268;10.506;2022-12-07T09:22:55;21.90;;;12.95;;
32637;SDS011;19045;52.268;10.506;2022-12-07T09:25:21;20.38;;;12.15;;
32637;SDS011;19045;52.268;10.506;2022-12-07T09:27:51;22.73;;;12.88;;
32637;SDS011;19045;52.268;10.506;2022-12-07T09:30:22;20.02;;;13.40;;
32637;SDS011;19045;52.268;10.506;2022-12-07T09:32:48;25.67;;;14.52;;
32637;SDS011;19045;52.268;10.506;2022-12-07T09:35:15;19.40;;;14.13;;
32637;SDS011;19045;52.268;10.506;2022-12-07T09:37:42;29.83;;;17.33;;
32637;SDS011;19045;52.268;10.506;2022-12-07T09:40:11;31.77;;;15.43;;
32637;SDS011;19045;52.268;10.506;2022-12-07T09:42:39;24.08;;;16.05;;
32637;SDS011;19045;52.268;10.506;2022-12-07T09:45:12;25.90;;;16.45;;
32637;SDS011;19045;52.268;10.506;2022-12-07T09:47:42;20.67;;;12.40;;
32637;SDS011;19045;52.268;10.506;2022-12-07T09:50:12;20.13;;;12.43;;
32637;SDS011;19045;52.268;10.506;2022-12-07T09:52:41;19.17;;;11.90;;
32637;SDS011;19045;52.268;10.506;2022-12-07T09:55:12;18.48;;;10.65;;
32637;SDS011;19045;52.268;10.506;2022-12-07T09:57:40;15.85;;;9.63;;
32637;SDS011;19045;52.268;10.506;2022-12-07T10:00:11;13.82;;;9.52;;
32637;SDS011;19045;52.268;10.506;2022-12-07T10:02:40;17.67;;;10.07;;
32637;SDS011;19045;52.268;10.506;2022-12-07T10:05:10;19.48;;;11.00;;
32637;SDS011;19045;52.268;10.506;2022-12-07T10:07:40;18.35;;;10.85;;
32637;SDS011;19045;52.268;10.506;2022-12-07T10:10:12;29.25;;;11.80;;
32637;SDS011;19045;52.268;10.506;2022-12-07T10:12:55;18.90;;;11.07;;
32637;SDS011;19045;52.268;10.506;2022-12-07T10:15:23;25.17;;;12.90;;
32637;SDS011;19045;52.268;10.506;2022-12-07T10:18:17;21.95;;;12.18;;
32637;SDS011;19045;52.268;10.506;2022-12-07T10:20:46;16.15;;;10.55;;
32637;SDS011;19045;52.268;10.506;2022-12-07T10:23:14;16.92;;;8.73;;
32637;SDS011;19045;52.268;10.506;2022-12-07T10:25:43;12.77;;;7.82;;
32637;SDS011;19045;52.268;10.506;2022-12-07T10:28:13;18.30;;;7.90;;
32637;SDS011;19045;52.268;10.506;2022-12-07T10:30:47;14.45;;;7.97;;
32637;SDS011;19045;52.268;10.506;2022-12-07T10:33:28;13.43;;;7.75;;
32637;SDS011;19045;52.268;10.506;2022-12-07T10:35:57;12.40;;;6.85;;
32637;SDS011;19045;52.268;10.506;2022-12-07T10:38:25;13.10;;;7.40;;
32637;SDS011;19045;52.268;10.506;2022-12-07T10:41:06;15.90;;;8.23;;
32637;SDS011;19045;52.268;10.506;2022-12-07T10:43:34;22.15;;;8.57;;
32637;SDS011;19045;52.268;10.506;2022-12-07T10:46:06;15.73;;;7.95;;
32637;SDS011;19045;52.268;10.506;2022-12-07T10:49:13;17.00;;;9.98;;
32637;SDS011;19045;52.268;10.506;2022-12-07T10:51:59;15.00;;;9.15;;
32637;SDS011;19045;52.268;10.506;2022-12-07T10:54:33;15.73;;;9.10;;
32637;SDS011;19045;52.268;10.506;2022-12-07T10:57:19;17.77;;;9.23;;
32637;SDS011;19045;52.268;10.506;2022-12-07T11:00:00;12.32;;;8.98;;
32637;SDS011;19045;52.268;10.506;2022-12-07T11:02:35;16.23;;;7.75;;
32637;SDS011;19045;52.268;10.506;2022-12-07T11:05:13;11.77;;;7.20;;
32637;SDS011;19045;52.268;10.506;2022-12-07T11:07:47;13.27;;;5.70;;
32637;SDS011;19045;52.268;10.506;2022-12-07T11:10:25;13.23;;;6.20;;
32637;SDS011;19045;52.268;10.506;2022-12-07T11:13:08;10.63;;;4.78;;
32637;SDS011;19045;52.268;10.506;2022-12-07T11:15:54;11.23;;;4.03;;
32637;SDS011;19045;52.268;10.506;2022-12-07T11:18:38;9.93;;;4.13;;
32637;SDS011;19045;52.268;10.506;2022-12-07T11:21:15;7.70;;;3.97;;
32637;SDS011;19045;52.268;10.506;2022-12-07T11:23:49;8.88;;;4.18;;
32637;SDS011;19045;52.268;10.506;2022-12-07T11:26:23;8.10;;;3.70;;
32637;SDS011;19045;52.268;10.506;2022-12-07T11:29:12;9.70;;;4.30;;
32637;SDS011;19045;52.268;10.506;2022-12-07T11:31:54;9.33;;;3.80;;
32637;SDS011;19045;52.268;10.506;2022-12-07T11:34:34;7.43;;;3.35;;
32637;SDS011;19045;52.268;10.506;2022-12-07T11:37:07;13.60;;;4.07;;
32637;SDS011;19045;52.268;10.506;2022-12-07T11:39:41;8.43;;;3.78;;
32637;SDS011;19045;52.268;10.506;2022-12-07T11:42:14;5.13;;;2.67;;
32637;SDS011;19045;52.268;10.506;2022-12-07T11:44:48;8.70;;;3.08;;
32637;SDS011;19045;52.268;10.506;2022-12-07T11:47:20;6.53;;;2.60;;
32637;SDS011;19045;52.268;10.506;2022-12-07T11:49:54;6.40;;;3.17;;
32637;SDS011;19045;52.268;10.506;2022-12-07T11:52:39;7.35;;;2.70;;
32637;SDS011;19045;52.268;10.506;2022-12-07T11:55:14;7.60;;;2.60;;
32637;SDS011;19045;52.268;10.506;2022-12-07T11:57:50;10.00;;;3.03;;
32637;SDS011;19045;52.268;10.506;2022-12-07T12:00:24;6.68;;;3.28;;
32637;SDS011;19045;52.268;10.506;2022-12-07T12:02:51;10.43;;;3.58;;
32637;SDS011;19045;52.268;10.506;2022-12-07T12:05:24;8.23;;;3.33;;
32637;SDS011;19045;52.268;10.506;2022-12-07T12:07:52;6.28;;;3.33;;
32637;SDS011;19045;52.268;10.506;2022-12-07T12:10:26;8.40;;;3.25;;
32637;SDS011;19045;52.268;10.506;2022-12-07T12:16:12;11.50;;;3.70;;
32637;SDS011;19045;52.268;10.506;2022-12-07T12:18:58;8.75;;;3.75;;
32637;SDS011;19045;52.268;10.506;2022-12-07T12:21:43;17.50;;;4.70;;
32637;SDS011;19045;52.268;10.506;2022-12-07T12:24:14;13.00;;;4.00;;
32637;SDS011;19045;52.268;10.506;2022-12-07T12:26:48;12.45;;;4.32;;
32637;SDS011;19045;52.268;10.506;2022-12-07T12:29:21;11.77;;;3.72;;
32637;SDS011;19045;52.268;10.506;2022-12-07T12:32:05;8.25;;;3.47;;
32637;SDS011;19045;52.268;10.506;2022-12-07T12:34:39;7.65;;;3.47;;
32637;SDS011;19045;52.268;10.506;2022-12-07T12:46:35;8.98;;;3.53;;
32637;SDS011;19045;52.268;10.506;2022-12-07T12:49:38;8.60;;;3.80;;
32637;SDS011;19045;52.268;10.506;2022-12-07T12:55:17;5.70;;;3.10;;
32637;SDS011;19045;52.268;10.506;2022-12-07T12:57:47;7.35;;;2.67;;
32637;SDS011;19045;52.268;10.506;2022-12-07T13:00:37;6.13;;;2.42;;
32637;SDS011;19045;52.268;10.506;2022-12-07T13:03:04;9.18;;;2.65;;
32637;SDS011;19045;52.268;10.506;2022-12-07T13:05:32;5.53;;;2.15;;
32637;SDS011;19045;52.268;10.506;2022-12-07T13:08:00;8.00;;;2.10;;
32637;SDS011;19045;52.268;10.506;2022-12-07T13:13:28;5.78;;;2.15;;
32637;SDS011;19045;52.268;10.506;2022-12-07T13:18:58;4.07;;;2.55;;
32637;SDS011;19045;52.268;10.506;2022-12-07T13:21:41;5.63;;;2.78;;
32637;SDS011;19045;52.268;10.506;2022-12-07T13:24:09;5.63;;;2.55;;
32637;SDS011;19045;52.268;10.506;2022-12-07T13:26:41;7.07;;;2.55;;
32637;SDS011;19045;52.268;10.506;2022-12-07T13:29:11;6.97;;;3.10;;
32637;SDS011;19045;52.268;10.506;2022-12-07T13:31:48;6.18;;;3.08;;
32637;SDS011;19045;52.268;10.506;2022-12-07T13:34:29;5.35;;;3.13;;
32637;SDS011;19045;52.268;10.506;2022-12-07T13:36:58;5.28;;;2.72;;
32637;SDS011;19045;52.268;10.506;2022-12-07T13:39:27;4.65;;;2.40;;
32637;SDS011;19045;52.268;10.506;2022-12-07T13:41:55;7.32;;;3.13;;
32637;SDS011;19045;52.268;10.506;2022-12-07T13:44:23;7.75;;;2.67;;
32637;SDS011;19045;52.268;10.506;2022-12-07T13:46:55;11.70;;;3.13;;
32637;SDS011;19045;52.268;10.506;2022-12-07T13:49:27;8.52;;;2.58;;
32637;SDS011;19045;52.268;10.506;2022-12-07T13:52:06;7.55;;;2.90;;
32637;SDS011;19045;52.268;10.506;2022-12-07T13:54:43;6.68;;;2.97;;
32637;SDS011;19045;52.268;10.506;2022-12-07T13:57:11;7.05;;;3.15;;
32637;SDS011;19045;52.268;10.506;2022-12-07T13:59:38;6.05;;;2.65;;
32637;SDS011;19045;52.268;10.506;2022-12-07T14:02:16;8.07;;;3.08;;
32637;SDS011;19045;52.268;10.506;2022-12-07T14:04:45;5.95;;;2.50;;
32637;SDS011;19045;52.268;10.506;2022-12-07T14:07:19;7.85;;;2.70;;
32637;SDS011;19045;52.268;10.506;2022-12-07T14:09:55;7.88;;;2.92;;
32637;SDS011;19045;52.268;10.506;2022-12-07T14:12:26;10.07;;;2.63;;
32637;SDS011;19045;52.268;10.506;2022-12-07T14:14:55;6.72;;;2.67;;
32637;SDS011;19045;52.268;10.506;2022-12-07T14:17:25;11.10;;;3.30;;
32637;SDS011;19045;52.268;10.506;2022-12-07T14:19:53;7.13;;;2.80;;
32637;SDS011;19045;52.268;10.506;2022-12-07T14:22:26;10.98;;;3.47;;
32637;SDS011;19045;52.268;10.506;2022-12-07T14:24:58;8.32;;;3.50;;
32637;SDS011;19045;52.268;10.506;2022-12-07T14:27:30;10.40;;;3.60;;
32637;SDS011;19045;52.268;10.506;2022-12-07T14:29:59;10.75;;;3.75;;
32637;SDS011;19045;52.268;10.506;2022-12-07T14:32:27;13.27;;;4.10;;
32637;SDS011;19045;52.268;10.506;2022-12-07T14:37:26;15.30;;;4.70;;
32637;SDS011;19045;52.268;10.506;2022-12-07T14:39:53;11.80;;;4.63;;
32637;SDS011;19045;52.268;10.506;2022-12-07T14:42:20;9.63;;;4.22;;
32637;SDS011;19045;52.268;10.506;2022-12-07T14:44:50;14.48;;;5.10;;
32637;SDS011;19045;52.268;10.506;2022-12-07T14:47:16;9.95;;;4.55;;
32637;SDS011;19045;52.268;10.506;2022-12-07T14:49:44;11.00;;;4.13;;
32637;SDS011;19045;52.268;10.506;2022-12-07T14:52:12;7.88;;;3.35;;
32637;SDS011;19045;52.268;10.506;2022-12-07T14:54:41;15.80;;;3.85;;
32637;SDS011;19045;52.268;10.506;2022-12-07T14:57:09;14.75;;;4.40;;
32637;SDS011;19045;52.268;10.506;2022-12-07T14:59:36;13.88;;;4.30;;
32637;SDS011;19045;52.268;10.506;2022-12-07T15:02:04;9.45;;;3.80;;
32637;SDS011;19045;52.268;10.506;2022-12-07T15:04:30;12.25;;;4.75;;
32637;SDS011;19045;52.268;10.506;2022-12-07T15:06:59;15.75;;;4.13;;